EFSIEFJY

Guest
Details From EFSI - Seinajoki
To EFJY - Jyvaskyla
Flight Number -
Tags Generated
Created
Modified
Stats Distance 80 nm / 149 km
Max Altitude 0 ft / 0 m
Waypoints 2
Social Downloads 1
Likes 0
Share VATSIM

Download

Looking for another format? Having issues loading an existing format? Contact us
Advertisement - Login to hide

Notes

Generated

Route

EFSI EFJY

ID Type Via Altitude Latitude Longitude Leg Dist Tot Dist Heading (true) Name
O EFSI APT - 0 ft / 0 m 62.69711˚ 22.82189˚ - 0 nm - -
O EFJY APT - 0 ft / 0 m 62.40755˚ 25.66014˚ 80 nm 80 nm 101° / 104° -

Altitude Profile

Advertisement - Login to hide

EFSI

Details ICAO EFSI (SJY)
Name Seinajoki
Region Finland
Timezone Europe/Helsinki (UTC+2.0)
Stats Elevation 301 ft / 92 m (AMSL)
Location 62.692119° 22.832325°
Runways 1
Magnetic Variation 8.807° E

METAR

EFSI 140050Z AUTO 19006KT 150V250 9999 FEW014 BKN017 BKN023 01/M00 Q0990

Decode

TAF

Not found

Departure Runways

ID Width Length Bearing (true) Bearing (mag) Surface Threshold Offset Overrun Length
14 98 ft / 30 m 5,048 ft / 1,539 m 136.22° 127.41° Asphalt 0 ft / 0 m 0 ft / 0 m
32 98 ft / 30 m 5,048 ft / 1,539 m 316.23° 307.42° Asphalt 0 ft / 0 m 0 ft / 0 m

EFJY

Details ICAO EFJY (JYV)
Name Jyvaskyla
Region Finland
Timezone Europe/Helsinki (UTC+2.0)
Stats Elevation 459 ft / 140 m (AMSL)
Location 62.399451° 25.678250°
Runways 1
Magnetic Variation 9.915° E

METAR

EFJY 140050Z AUTO 21007KT 170V260 9999 BKN013 01/M01 Q0993

Decode

TAF

TAF AMD EFJY 140110Z 1401/1424 21008KT 9999 SCT014 BKN037 TEMPO 1401/1408 4000 SHSN BKN009 BECMG 1408/1410 SCT015 BECMG 1418/1420 BKN010

Decode

Destination Runways

ID Width Length Bearing (true) Bearing (mag) Surface Threshold Offset Overrun Length
12 197 ft / 60 m 8,511 ft / 2,594 m 133.97° 124.05° Asphalt 0 ft / 0 m 295 ft / 90 m
30 197 ft / 60 m 8,511 ft / 2,594 m 314.00° 304.08° Asphalt 0 ft / 0 m 295 ft / 90 m

Approach Navaids

Runway Type Ident Frequency Range Bearing (true) Bearing (mag) Slope Elevation
30 Localiser JY 110.90 MHz 18 nm / 33 km 313.96° 304.05° - 459 ft / 140 m (AMSL)
30 Glidescope JY 110.90 MHz 10 nm / 19 km 313.98° 304.07° 3.00° 459 ft / 140 m (AMSL)
30 DME JY 110.90 MHz 18 nm / 33 km - - - 459 ft / 140 m (AMSL)

Popular Alternatives